首页
METAR-TAF:

METAR-TAF

机场 :

丹佛國際機場

丹佛, 科羅拉多州, 美国

纬度: 39-49-58N, 经度: 104-39-27W, 海拔: 1655米

当前天气观测

该预报发布于13分钟前的14:53 UTC
风速3节,风向东南
温度 8°C
湿度 71%
气压 1024 hPa
能見度: 16.1公里
少量云层高于9000英尺
散云层高于11000英尺
多云层高于22000英尺

METAR: KDEN 231453Z 14003KT 10SM FEW090 SCT110 BKN220 08/03 A3024 RMK AO2 SLP210 T00780033 53005

时间: 09:06 (15:06 UTC)

预报

该预报发布于3分钟前的15:03 UTC
预报有效从23日的 15点(UTC)到 24日的 18点(UTC)
风速3节,风向多变
能見度: 10公里
少量云层高于10000英尺
多云层高于22000英尺
从 23日的 1700点(UTC)
风速7节,风向南转南东
能見度: 10公里
散云层高于8000英尺
散云层高于25000英尺
从 23日的 1900点(UTC)
风速15节,风向南转南东,有时为22节阵风
能見度: 10公里
散云层高于8000英尺
多云层高于25000英尺
从 24日的 0200点(UTC)
风速11节,风向
能見度: 10公里
阴天层高于6000英尺
附近有阵雨
从 24日的 1000点(UTC)
风速6节,风向西转西南
能見度: 10公里
多云层高于6000英尺

TAF: KDEN 231503Z 2315/2418 VRB03KT P6SM FEW100 BKN220 FM231700 15007KT P6SM SCT080 SCT250 FM231900 16015G22KT P6SM SCT080 BKN250 FM240200 19011KT P6SM VCSH OVC060 FM241000 24006KT P6SM BKN060

超过4000个机场的气象观测和天气预报(METAR&TAF报告)。

可查询的气象台以黄色和红色小点在地图上表示。

将鼠标移到小点上方,可查看气象台名称。

然后点击查看天气观测和预报。

如需切换地图:点击带黑十字的绿色按钮放大地图;点击带横线的绿色按钮缩小地图;或者点击绿色箭头查看邻近地区的地图。


METAR-TAF: